createdAt,value
2018-03-02T00:00:31.953Z,1007.26
2018-03-02T00:01:31.942Z,1007.28
2018-03-02T00:02:31.957Z,1007.28
2018-03-02T00:03:31.948Z,1007.27
2018-03-02T00:04:31.957Z,1007.18
2018-03-02T00:05:31.963Z,1007.14
2018-03-02T00:06:31.966Z,1007.17
2018-03-02T00:07:31.965Z,1007.16
2018-03-02T00:08:31.970Z,1007.18
2018-03-02T00:09:31.961Z,1007.14
2018-03-02T00:10:31.977Z,1007.14
2018-03-02T00:11:31.975Z,1007.14
2018-03-02T00:12:31.967Z,1007.13
2018-03-02T00:13:31.979Z,1007.07
2018-03-02T00:14:31.969Z,1006.98
2018-03-02T00:15:31.986Z,1007.08
2018-03-02T00:16:31.978Z,1007.07
2018-03-02T00:17:31.983Z,1007.09
2018-03-02T00:18:31.986Z,1007.07
2018-03-02T00:19:31.989Z,1007.12
2018-03-02T00:20:31.987Z,1007.08
2018-03-02T00:21:32.004Z,1007.09
2018-03-02T00:22:31.992Z,1007.09
2018-03-02T00:23:32.005Z,1007.08
2018-03-02T00:24:32.006Z,1007.07
2018-03-02T00:25:32.009Z,1007.05
2018-03-02T00:26:32.006Z,1007.06
2018-03-02T00:27:32.009Z,1007.01
2018-03-02T00:28:32.007Z,1007.04
2018-03-02T00:29:32.007Z,1007.04
2018-03-02T00:30:32.030Z,1006.95
2018-03-02T00:31:32.021Z,1007.06
2018-03-02T00:32:32.023Z,1006.99
2018-03-02T00:33:32.017Z,1007.07
2018-03-02T00:34:32.028Z,1006.97
2018-03-02T00:35:32.024Z,1006.99
2018-03-02T00:36:32.030Z,1006.94
2018-03-02T00:37:32.032Z,1006.93
2018-03-02T00:38:32.045Z,1006.94
2018-03-02T00:39:32.037Z,1006.90
2018-03-02T00:40:32.045Z,1006.90
2018-03-02T00:41:32.033Z,1006.94
2018-03-02T00:42:32.052Z,1006.83
2018-03-02T00:43:32.042Z,1006.81
2018-03-02T00:44:32.037Z,1006.79
2018-03-02T00:45:32.052Z,1006.81
2018-03-02T00:46:32.041Z,1006.77
2018-03-02T00:47:32.054Z,1006.82
2018-03-02T00:48:32.054Z,1006.69
2018-03-02T00:49:32.055Z,1006.70
2018-03-02T00:50:32.058Z,1006.72
2018-03-02T00:51:32.065Z,1006.72
2018-03-02T00:52:32.073Z,1006.62
2018-03-02T00:53:32.071Z,1006.65
2018-03-02T00:54:32.067Z,1006.66
2018-03-02T00:55:32.074Z,1006.67
2018-03-02T00:56:32.071Z,1006.68
2018-03-02T00:57:32.063Z,1006.67
2018-03-02T00:58:32.078Z,1006.67
2018-03-02T00:59:32.073Z,1006.60
2018-03-02T01:00:32.080Z,1006.61
2018-03-02T01:01:32.079Z,1006.67
2018-03-02T01:02:32.094Z,1006.62
2018-03-02T01:03:32.083Z,1006.60
2018-03-02T01:04:32.093Z,1006.66
2018-03-02T01:05:32.084Z,1006.66
2018-03-02T01:06:32.090Z,1006.56
2018-03-02T01:07:32.093Z,1006.60
2018-03-02T01:08:32.091Z,1006.59
2018-03-02T01:09:32.105Z,1006.53
2018-03-02T01:10:32.094Z,1006.50
2018-03-02T01:11:32.117Z,1006.38
2018-03-02T01:12:32.103Z,1006.45
2018-03-02T01:13:32.110Z,1006.43
2018-03-02T01:14:32.111Z,1006.45
2018-03-02T01:15:32.110Z,1006.41
2018-03-02T01:16:32.111Z,1006.40
2018-03-02T01:17:32.109Z,1006.36
2018-03-02T01:18:32.115Z,1006.37
2018-03-02T01:19:32.116Z,1006.34
2018-03-02T01:20:32.127Z,1006.31
2018-03-02T01:21:32.118Z,1006.37
2018-03-02T01:22:32.129Z,1006.36
2018-03-02T01:23:32.126Z,1006.37
2018-03-02T01:24:32.130Z,1006.32
2018-03-02T01:25:32.136Z,1006.34
2018-03-02T01:26:32.139Z,1006.30
2018-03-02T01:27:32.138Z,1006.29
2018-03-02T01:28:32.144Z,1006.22
2018-03-02T01:29:32.136Z,1006.17
2018-03-02T01:30:32.137Z,1006.16
2018-03-02T01:31:32.143Z,1006.22
2018-03-02T01:32:32.140Z,1006.17
2018-03-02T01:33:32.153Z,1006.11
2018-03-02T01:34:32.148Z,1006.09
2018-03-02T01:35:32.155Z,1006.05
2018-03-02T01:36:32.153Z,1006.03
2018-03-02T01:37:32.157Z,1006.06
2018-03-02T01:38:32.158Z,1006.04
2018-03-02T01:39:32.156Z,1005.97
2018-03-02T01:40:32.159Z,1006.01
2018-03-02T01:41:32.159Z,1005.96
2018-03-02T01:42:32.166Z,1006.02
2018-03-02T01:43:32.166Z,1005.95
2018-03-02T01:44:32.174Z,1005.97
2018-03-02T01:45:32.171Z,1005.95
2018-03-02T01:46:32.184Z,1005.95
2018-03-02T01:47:32.182Z,1005.92
2018-03-02T01:48:32.168Z,1005.86
2018-03-02T01:49:32.184Z,1005.87
2018-03-02T01:50:32.188Z,1005.83
2018-03-02T01:51:32.193Z,1005.84
2018-03-02T01:52:32.184Z,1005.80
2018-03-02T01:53:32.192Z,1005.81
2018-03-02T01:54:32.190Z,1005.78
2018-03-02T01:55:32.198Z,1005.77
2018-03-02T01:56:32.194Z,1005.68
2018-03-02T01:57:32.187Z,1005.77
2018-03-02T01:58:32.202Z,1005.71
2018-03-02T01:59:32.194Z,1005.78
2018-03-02T02:00:32.207Z,1005.76
2018-03-02T02:01:32.202Z,1005.72
2018-03-02T02:02:32.205Z,1005.64
2018-03-02T02:03:32.206Z,1005.67
2018-03-02T02:04:32.214Z,1005.63
2018-03-02T02:05:32.206Z,1005.57
2018-03-02T02:06:32.207Z,1005.54
2018-03-02T02:07:32.210Z,1005.56
2018-03-02T02:08:32.207Z,1005.44
2018-03-02T02:09:32.222Z,1005.47
2018-03-02T02:10:32.216Z,1005.46
2018-03-02T02:11:32.227Z,1005.45
2018-03-02T02:12:32.221Z,1005.44
2018-03-02T02:13:32.226Z,1005.41
2018-03-02T02:14:32.232Z,1005.36
2018-03-02T02:15:32.225Z,1005.38
2018-03-02T02:16:32.228Z,1005.36
2018-03-02T02:17:32.228Z,1005.33
2018-03-02T02:18:32.235Z,1005.39
2018-03-02T02:19:32.233Z,1005.38
2018-03-02T02:20:32.244Z,1005.37
2018-03-02T02:21:32.238Z,1005.35
2018-03-02T02:22:32.237Z,1005.31
2018-03-02T02:23:32.245Z,1005.32
2018-03-02T02:24:32.239Z,1005.29
2018-03-02T02:25:32.251Z,1005.28
2018-03-02T02:26:32.248Z,1005.26
2018-03-02T02:27:32.256Z,1005.20
2018-03-02T02:28:32.253Z,1005.18
2018-03-02T02:29:32.259Z,1005.20
2018-03-02T02:30:32.259Z,1005.21
2018-03-02T02:31:32.249Z,1005.22
2018-03-02T02:32:32.262Z,1005.21
2018-03-02T02:33:32.259Z,1005.18
2018-03-02T02:34:32.265Z,1005.13
2018-03-02T02:35:32.264Z,1005.15
2018-03-02T02:36:32.283Z,1005.11
2018-03-02T02:37:32.268Z,1005.07
2018-03-02T02:38:32.265Z,1005.13
2018-03-02T02:39:32.282Z,1005.13
2018-03-02T02:40:32.285Z,1005.16
2018-03-02T02:41:32.279Z,1005.20
2018-03-02T02:42:32.272Z,1005.21
2018-03-02T02:43:32.290Z,1005.16
2018-03-02T02:44:32.280Z,1005.20
2018-03-02T02:45:32.281Z,1005.14
2018-03-02T02:46:32.289Z,1005.19
2018-03-02T02:47:32.280Z,1005.15
2018-03-02T02:48:32.288Z,1005.18
2018-03-02T02:49:32.302Z,1005.14
2018-03-02T02:50:32.293Z,1005.15
2018-03-02T02:51:32.293Z,1005.16
2018-03-02T02:52:32.294Z,1005.14
2018-03-02T02:53:32.299Z,1005.15
2018-03-02T02:54:32.297Z,1005.11
2018-03-02T02:55:32.300Z,1005.14
2018-03-02T02:56:32.298Z,1005.08
2018-03-02T02:57:32.309Z,1005.05
2018-03-02T02:58:32.302Z,1005.08
2018-03-02T02:59:32.301Z,1005.09
2018-03-02T03:00:32.310Z,1005.08
2018-03-02T03:01:32.303Z,1005.06
2018-03-02T03:02:32.332Z,1005.13
2018-03-02T03:03:32.313Z,1005.08
2018-03-02T03:04:32.306Z,1005.07
2018-03-02T03:05:32.318Z,1005.04
2018-03-02T03:06:32.321Z,1005.11
2018-03-02T03:07:32.322Z,1005.12
2018-03-02T03:08:32.318Z,1005.08
2018-03-02T03:09:32.328Z,1005.09
2018-03-02T03:10:32.325Z,1005.07
2018-03-02T03:11:32.332Z,1005.04
2018-03-02T03:12:32.329Z,1005.05
2018-03-02T03:13:32.327Z,1005.04
2018-03-02T03:14:32.333Z,1005.06
2018-03-02T03:15:32.333Z,1005.08
2018-03-02T03:16:32.353Z,1005.04
2018-03-02T03:17:32.334Z,1005.04
2018-03-02T03:18:32.334Z,1005.03
2018-03-02T03:19:32.338Z,1005.06
2018-03-02T03:20:32.337Z,1005.05
2018-03-02T03:21:32.346Z,1005.02
2018-03-02T03:22:32.340Z,1004.97
2018-03-02T03:23:32.354Z,1005.05
2018-03-02T03:24:32.351Z,1004.97
2018-03-02T03:25:32.343Z,1004.96
2018-03-02T03:26:32.361Z,1005.00
2018-03-02T03:27:32.352Z,1004.97
2018-03-02T03:28:32.354Z,1004.96
2018-03-02T03:29:32.355Z,1004.95
2018-03-02T03:30:32.362Z,1004.87
2018-03-02T03:31:32.365Z,1004.86
2018-03-02T03:32:32.356Z,1004.84
2018-03-02T03:33:32.362Z,1004.85
2018-03-02T03:34:32.364Z,1004.84
2018-03-02T03:35:32.368Z,1004.81
2018-03-02T03:36:32.365Z,1004.81
2018-03-02T03:37:32.367Z,1004.83
2018-03-02T03:38:32.368Z,1004.79
2018-03-02T03:39:32.368Z,1004.80
2018-03-02T03:40:32.378Z,1004.80
2018-03-02T03:41:32.372Z,1004.86
2018-03-02T03:42:32.387Z,1004.84
2018-03-02T03:43:32.382Z,1004.83
2018-03-02T03:44:32.375Z,1004.81
2018-03-02T03:45:32.387Z,1004.82
2018-03-02T03:46:32.379Z,1004.76
2018-03-02T03:47:32.392Z,1004.76
2018-03-02T03:48:32.388Z,1004.75
2018-03-02T03:49:32.385Z,1004.73
2018-03-02T03:50:32.391Z,1004.74
2018-03-02T03:51:32.384Z,1004.71
2018-03-02T03:52:32.398Z,1004.70
2018-03-02T03:53:32.394Z,1004.66
2018-03-02T03:54:32.400Z,1004.69
2018-03-02T03:55:32.401Z,1004.68
2018-03-02T03:56:32.398Z,1004.69
2018-03-02T03:57:32.402Z,1004.71
2018-03-02T03:58:32.401Z,1004.71
2018-03-02T03:59:32.409Z,1004.71
2018-03-02T04:00:32.414Z,1004.65
2018-03-02T04:01:32.415Z,1004.71
2018-03-02T04:02:32.411Z,1004.69
2018-03-02T04:03:32.404Z,1004.69
2018-03-02T04:04:32.412Z,1004.69
2018-03-02T04:05:32.414Z,1004.67
2018-03-02T04:06:32.421Z,1004.65
2018-03-02T04:07:32.442Z,1004.62
2018-03-02T04:08:32.416Z,1004.62
2018-03-02T04:09:32.420Z,1004.63
2018-03-02T04:10:32.420Z,1004.57
2018-03-02T04:11:32.430Z,1004.64
2018-03-02T04:12:32.421Z,1004.62
2018-03-02T04:13:32.422Z,1004.60
2018-03-02T04:14:32.432Z,1004.62
2018-03-02T04:15:32.430Z,1004.55
2018-03-02T04:16:32.437Z,1004.59
2018-03-02T04:17:32.429Z,1004.55
2018-03-02T04:18:32.431Z,1004.57
2018-03-02T04:19:32.435Z,1004.52
2018-03-02T04:20:32.436Z,1004.47
2018-03-02T04:21:32.444Z,1004.52
2018-03-02T04:22:32.435Z,1004.54
2018-03-02T04:23:32.463Z,1004.53
2018-03-02T04:24:32.444Z,1004.49
2018-03-02T04:25:32.440Z,1004.46
2018-03-02T04:26:32.452Z,1004.49
2018-03-02T04:27:32.457Z,1004.48
2018-03-02T04:28:32.452Z,1004.46
2018-03-02T04:29:32.452Z,1004.44
2018-03-02T04:30:32.444Z,1004.45
2018-03-02T04:31:32.456Z,1004.41
2018-03-02T04:32:32.456Z,1004.37
2018-03-02T04:33:32.462Z,1004.37
2018-03-02T04:34:32.473Z,1004.33
2018-03-02T04:35:32.452Z,1004.36
2018-03-02T04:36:32.459Z,1004.31
2018-03-02T04:37:32.459Z,1004.35
2018-03-02T04:38:32.465Z,1004.36
2018-03-02T04:39:32.466Z,1004.35
2018-03-02T04:40:32.464Z,1004.32
2018-03-02T04:41:32.475Z,1004.34
2018-03-02T04:42:32.467Z,1004.34
2018-03-02T04:43:32.480Z,1004.31
2018-03-02T04:44:32.468Z,1004.29
2018-03-02T04:45:32.484Z,1004.26
2018-03-02T04:46:32.475Z,1004.26
2018-03-02T04:47:32.484Z,1004.25
2018-03-02T04:48:32.484Z,1004.21
2018-03-02T04:49:32.476Z,1004.24
2018-03-02T04:50:32.490Z,1004.15
2018-03-02T04:51:32.483Z,1004.19
2018-03-02T04:52:32.479Z,1004.17
2018-03-02T04:53:32.503Z,1004.19
2018-03-02T04:54:32.481Z,1004.14
2018-03-02T04:55:32.494Z,1004.13
2018-03-02T04:56:32.492Z,1004.09
2018-03-02T04:57:32.494Z,1004.09
2018-03-02T04:58:32.503Z,1004.07
2018-03-02T04:59:32.490Z,1004.05
2018-03-02T05:00:32.500Z,1004.06
2018-03-02T05:01:32.500Z,1004.08
2018-03-02T05:02:32.516Z,1004.07
2018-03-02T05:03:32.507Z,1004.10
2018-03-02T05:04:32.506Z,1004.07
2018-03-02T05:05:32.508Z,1004.06
2018-03-02T05:06:32.509Z,1004.11
2018-03-02T05:07:32.514Z,1004.08
2018-03-02T05:08:32.509Z,1004.08
2018-03-02T05:09:32.510Z,1004.07
2018-03-02T05:10:32.512Z,1004.04
2018-03-02T05:11:32.512Z,1004.08
2018-03-02T05:12:32.520Z,1004.03
2018-03-02T05:13:32.518Z,1004.05
2018-03-02T05:14:32.518Z,1004.09
2018-03-02T05:15:32.521Z,1004.07
2018-03-02T05:16:32.517Z,1004.07
2018-03-02T05:17:32.530Z,1004.09
2018-03-02T05:18:32.519Z,1004.02
2018-03-02T05:19:32.533Z,1004.04
2018-03-02T05:20:32.530Z,1004.05
2018-03-02T05:21:32.521Z,1004.05
2018-03-02T05:22:32.537Z,1004.02
2018-03-02T05:23:32.526Z,1004.02
2018-03-02T05:24:32.547Z,1004.02
2018-03-02T05:25:32.538Z,1003.96
2018-03-02T05:26:32.535Z,1004.01
2018-03-02T05:27:32.546Z,1004.00
2018-03-02T05:28:32.540Z,1003.93
2018-03-02T05:29:32.545Z,1003.95
2018-03-02T05:30:32.544Z,1003.98
2018-03-02T05:31:32.553Z,1004.02
2018-03-02T05:32:32.544Z,1004.01
2018-03-02T05:33:32.545Z,1003.98
2018-03-02T05:34:32.552Z,1004.00
2018-03-02T05:35:32.552Z,1003.95
2018-03-02T05:36:32.549Z,1004.00
2018-03-02T05:37:32.553Z,1003.90
2018-03-02T05:38:32.554Z,1003.91
2018-03-02T05:39:32.562Z,1003.95
2018-03-02T05:40:32.556Z,1003.87
2018-03-02T05:41:32.558Z,1003.94
2018-03-02T05:42:32.562Z,1003.94
2018-03-02T05:43:32.560Z,1003.94
2018-03-02T05:44:32.568Z,1003.97
2018-03-02T05:45:32.560Z,1003.89
2018-03-02T05:46:32.564Z,1003.91
2018-03-02T05:47:32.568Z,1003.87
2018-03-02T05:48:32.568Z,1003.89
2018-03-02T05:49:32.593Z,1003.87
2018-03-02T05:50:32.571Z,1003.87
2018-03-02T05:51:32.581Z,1003.87
2018-03-02T05:52:32.590Z,1003.86
2018-03-02T05:53:32.586Z,1003.86
2018-03-02T05:54:32.582Z,1003.87
2018-03-02T05:55:32.577Z,1003.89
2018-03-02T05:56:32.572Z,1003.90
2018-03-02T05:57:32.584Z,1003.85
2018-03-02T05:58:32.577Z,1003.86
2018-03-02T05:59:32.592Z,1003.83
2018-03-02T06:00:32.588Z,1003.86
2018-03-02T06:01:32.592Z,1003.84
2018-03-02T06:02:32.594Z,1003.84
2018-03-02T06:03:32.588Z,1003.86
2018-03-02T06:04:32.592Z,1003.83
2018-03-02T06:05:32.592Z,1003.82
2018-03-02T06:06:32.611Z,1003.84
2018-03-02T06:07:32.614Z,1003.86
2018-03-02T06:08:32.596Z,1003.87
2018-03-02T06:09:32.604Z,1003.85
2018-03-02T06:10:32.600Z,1003.89
2018-03-02T06:11:32.614Z,1003.89
2018-03-02T06:12:32.606Z,1003.86
2018-03-02T06:13:32.598Z,1003.85
2018-03-02T06:14:32.614Z,1003.86
2018-03-02T06:15:32.604Z,1003.87
2018-03-02T06:16:32.637Z,1003.88
2018-03-02T06:17:32.611Z,1003.92
2018-03-02T06:18:32.606Z,1003.87
2018-03-02T06:19:32.619Z,1003.91
2018-03-02T06:20:32.619Z,1003.92
2018-03-02T06:21:32.620Z,1003.93
2018-03-02T06:22:32.618Z,1003.93
2018-03-02T06:23:32.624Z,1003.93
2018-03-02T06:24:32.620Z,1003.94
2018-03-02T06:25:32.621Z,1003.99
2018-03-02T06:26:32.632Z,1003.93
2018-03-02T06:27:32.625Z,1003.96
2018-03-02T06:28:32.639Z,1003.99
2018-03-02T06:29:32.627Z,1003.97
2018-03-02T06:30:32.633Z,1003.94
2018-03-02T06:31:32.634Z,1003.92
2018-03-02T06:32:32.629Z,1003.93
2018-03-02T06:33:32.643Z,1003.89
2018-03-02T06:34:32.638Z,1003.88
2018-03-02T06:35:32.647Z,1003.88
2018-03-02T06:36:32.643Z,1003.86
2018-03-02T06:37:32.636Z,1003.84
2018-03-02T06:38:32.654Z,1003.81
2018-03-02T06:39:32.643Z,1003.82
2018-03-02T06:40:32.655Z,1003.79
2018-03-02T06:41:32.652Z,1003.81
2018-03-02T06:42:32.644Z,1003.80
2018-03-02T06:43:32.657Z,1003.85
2018-03-02T06:44:32.654Z,1003.75
2018-03-02T06:45:32.658Z,1003.74
2018-03-02T06:46:32.661Z,1003.69
2018-03-02T06:47:32.665Z,1003.71
2018-03-02T06:48:32.658Z,1003.64
2018-03-02T06:49:32.659Z,1003.67
2018-03-02T06:50:32.677Z,1003.63
2018-03-02T06:51:32.678Z,1003.60
2018-03-02T06:52:32.676Z,1003.57
2018-03-02T06:53:32.667Z,1003.61
2018-03-02T06:54:32.678Z,1003.58
2018-03-02T06:55:32.671Z,1003.61
2018-03-02T06:56:32.667Z,1003.63
2018-03-02T06:57:32.683Z,1003.62
2018-03-02T06:58:32.673Z,1003.62
2018-03-02T06:59:32.688Z,1003.60
2018-03-02T07:00:32.682Z,1003.63
2018-03-02T07:01:32.713Z,1003.55
2018-03-02T07:02:32.689Z,1003.57
2018-03-02T07:03:32.694Z,1003.56
2018-03-02T07:04:32.688Z,1003.56
2018-03-02T07:05:32.742Z,1003.57
2018-03-02T07:06:32.699Z,1003.56
2018-03-02T07:07:32.693Z,1003.55
2018-03-02T07:08:32.707Z,1003.55
2018-03-02T07:09:32.698Z,1003.54
2018-03-02T07:10:32.712Z,1003.54
2018-03-02T07:11:32.702Z,1003.53
2018-03-02T07:12:32.712Z,1003.54
2018-03-02T07:13:32.731Z,1003.60
2018-03-02T07:14:32.706Z,1003.55
2018-03-02T07:15:32.715Z,1003.51
2018-03-02T07:16:32.712Z,1003.52
2018-03-02T07:17:32.719Z,1003.50
2018-03-02T07:18:32.720Z,1003.48
2018-03-02T07:19:32.723Z,1003.48
2018-03-02T07:20:32.719Z,1003.46
2018-03-02T07:21:32.732Z,1003.42
2018-03-02T07:22:32.722Z,1003.40
2018-03-02T07:23:32.740Z,1003.36
2018-03-02T07:24:32.990Z,1003.33
2018-03-02T07:25:32.726Z,1003.31
2018-03-02T07:26:32.752Z,1003.24
2018-03-02T07:27:32.777Z,1003.34
2018-03-02T07:28:32.743Z,1003.26
2018-03-02T07:29:32.741Z,1003.27
2018-03-02T07:30:32.745Z,1003.26
2018-03-02T07:31:32.746Z,1003.29
2018-03-02T07:32:32.757Z,1003.22
2018-03-02T07:33:32.750Z,1003.21
2018-03-02T07:34:32.757Z,1003.23
2018-03-02T07:35:32.751Z,1003.14
2018-03-02T07:36:32.760Z,1003.17
2018-03-02T07:37:32.760Z,1003.21
2018-03-02T07:38:32.767Z,1003.16
2018-03-02T07:39:32.768Z,1003.16
2018-03-02T07:40:32.766Z,1003.14
2018-03-02T07:41:32.772Z,1003.15
2018-03-02T07:42:32.774Z,1003.13
2018-03-02T07:43:32.772Z,1003.14
2018-03-02T07:44:32.774Z,1003.16
2018-03-02T07:45:32.784Z,1003.15
2018-03-02T07:46:32.774Z,1003.13
2018-03-02T07:47:32.788Z,1003.15
2018-03-02T07:48:32.787Z,1003.13
2018-03-02T07:49:32.787Z,1003.14
2018-03-02T07:50:32.794Z,1003.09
2018-03-02T07:51:32.796Z,1003.11
2018-03-02T07:52:32.791Z,1003.07
2018-03-02T07:53:32.804Z,1003.12
2018-03-02T07:54:32.799Z,1003.08
2018-03-02T07:55:32.807Z,1003.06
2018-03-02T07:56:32.803Z,1003.09
2018-03-02T07:57:32.810Z,1002.98
2018-03-02T07:58:32.816Z,1003.04
2018-03-02T07:59:32.818Z,1003.02
2018-03-02T08:00:32.812Z,1003.07
2018-03-02T08:01:32.828Z,1003.07
2018-03-02T08:02:32.818Z,1003.05
2018-03-02T08:03:32.832Z,1003.05
2018-03-02T08:04:32.828Z,1003.07
2018-03-02T08:05:32.833Z,1003.03
2018-03-02T08:06:32.829Z,1003.07
2018-03-02T08:07:32.835Z,1002.99
2018-03-02T08:08:32.832Z,1003.01
2018-03-02T08:09:32.850Z,1002.99
2018-03-02T08:10:32.840Z,1002.98
2018-03-02T08:11:32.851Z,1002.97
2018-03-02T08:12:32.861Z,1002.95
2018-03-02T08:13:32.853Z,1002.93
2018-03-02T08:14:32.863Z,1002.92
2018-03-02T08:15:32.857Z,1002.98
2018-03-02T08:16:32.865Z,1002.91
2018-03-02T08:17:32.865Z,1002.96
2018-03-02T08:18:32.876Z,1002.88
2018-03-02T08:19:32.868Z,1002.88
2018-03-02T08:20:32.878Z,1002.91
2018-03-02T08:21:32.879Z,1002.88
2018-03-02T08:22:32.881Z,1002.90
2018-03-02T08:23:32.881Z,1002.90
2018-03-02T08:24:32.892Z,1002.82
2018-03-02T08:25:32.892Z,1002.81
2018-03-02T08:26:32.898Z,1002.80
2018-03-02T08:27:32.903Z,1002.81
2018-03-02T08:28:32.900Z,1002.85
2018-03-02T08:29:32.911Z,1002.80
2018-03-02T08:30:32.903Z,1002.82
2018-03-02T08:31:32.916Z,1002.78
2018-03-02T08:32:32.915Z,1002.73
2018-03-02T08:33:32.916Z,1002.73
2018-03-02T08:34:32.917Z,1002.66
2018-03-02T08:35:32.923Z,1002.63
2018-03-02T08:36:32.920Z,1002.71
2018-03-02T08:37:32.931Z,1002.70
2018-03-02T08:38:32.941Z,1002.70
2018-03-02T08:39:32.938Z,1002.73
2018-03-02T08:40:32.947Z,1002.69
2018-03-02T08:41:32.939Z,1002.71
2018-03-02T08:42:32.951Z,1002.69
2018-03-02T08:43:32.958Z,1002.67
2018-03-02T08:44:32.955Z,1002.65
2018-03-02T08:45:32.965Z,1002.68
2018-03-02T08:46:32.958Z,1002.61
2018-03-02T08:47:32.984Z,1002.60
2018-03-02T08:48:32.967Z,1002.54
2018-03-02T08:49:32.973Z,1002.51
2018-03-02T08:50:32.985Z,1002.49
2018-03-02T08:51:32.979Z,1002.47
2018-03-02T08:52:32.987Z,1002.43
2018-03-02T08:53:32.988Z,1002.45
2018-03-02T08:54:32.996Z,1002.40
2018-03-02T08:55:32.991Z,1002.40
2018-03-02T08:56:33.000Z,1002.42
2018-03-02T08:57:33.004Z,1002.36
2018-03-02T08:58:33.026Z,1002.37
2018-03-02T08:59:33.020Z,1002.35
2018-03-02T09:00:33.011Z,1002.36
2018-03-02T09:01:33.020Z,1002.38
2018-03-02T09:02:33.024Z,1002.25
2018-03-02T09:03:33.025Z,1002.29
2018-03-02T09:04:33.034Z,1002.33
2018-03-02T09:05:33.086Z,1002.27
2018-03-02T09:06:33.038Z,1002.26
2018-03-02T09:07:33.049Z,1002.23
2018-03-02T09:08:33.040Z,1002.20
2018-03-02T09:09:33.057Z,1002.16
2018-03-02T09:10:33.049Z,1002.18
2018-03-02T09:11:33.061Z,1002.17
2018-03-02T09:12:33.070Z,1002.14
2018-03-02T09:13:33.065Z,1002.13
2018-03-02T09:14:33.075Z,1002.15
2018-03-02T09:15:33.078Z,1002.10
2018-03-02T09:16:33.077Z,1002.14
2018-03-02T09:17:33.086Z,1002.08
2018-03-02T09:18:33.082Z,1002.05
2018-03-02T09:19:33.097Z,1002.05
2018-03-02T09:20:33.106Z,1002.08
2018-03-02T09:21:33.094Z,1002.04
2018-03-02T09:22:33.106Z,1002.00
2018-03-02T09:23:33.110Z,1001.95
2018-03-02T09:24:33.106Z,1001.91
2018-03-02T09:25:33.120Z,1001.93
2018-03-02T09:26:33.126Z,1001.92
2018-03-02T09:27:33.126Z,1001.88
2018-03-02T09:28:33.136Z,1001.87
2018-03-02T09:29:33.128Z,1001.86
2018-03-02T09:30:33.152Z,1001.85
2018-03-02T09:31:33.144Z,1001.83
2018-03-02T09:32:33.142Z,1001.86
2018-03-02T09:33:33.153Z,1001.88
2018-03-02T09:34:33.163Z,1001.84
2018-03-02T09:35:33.165Z,1001.83
2018-03-02T09:36:33.170Z,1001.78
2018-03-02T09:37:33.174Z,1001.75
2018-03-02T09:38:33.176Z,1001.79
2018-03-02T09:39:33.179Z,1001.75
2018-03-02T09:40:33.196Z,1001.72
2018-03-02T09:41:33.196Z,1001.73
2018-03-02T09:42:33.198Z,1001.72
2018-03-02T09:43:33.205Z,1001.72
2018-03-02T09:44:33.201Z,1001.73
2018-03-02T09:45:33.205Z,1001.71
2018-03-02T09:46:33.221Z,1001.68
2018-03-02T09:47:33.214Z,1001.67
2018-03-02T09:48:33.235Z,1001.61
2018-03-02T09:49:33.236Z,1001.70
2018-03-02T09:50:33.226Z,1001.60
2018-03-02T09:51:33.240Z,1001.56
2018-03-02T09:52:33.254Z,1001.56
2018-03-02T09:53:33.239Z,1001.52
2018-03-02T09:54:33.253Z,1001.54
2018-03-02T09:55:33.264Z,1001.55
2018-03-02T09:56:33.254Z,1001.58
2018-03-02T09:57:33.267Z,1001.48
2018-03-02T09:58:33.274Z,1001.47
2018-03-02T09:59:33.286Z,1001.55
2018-03-02T10:00:33.286Z,1001.46
2018-03-02T10:01:33.288Z,1001.47
2018-03-02T10:02:33.299Z,1001.42
2018-03-02T10:03:33.291Z,1001.40
2018-03-02T10:04:33.344Z,1001.43
2018-03-02T10:05:33.318Z,1001.37
2018-03-02T10:06:33.308Z,1001.40
2018-03-02T10:07:33.321Z,1001.29
2018-03-02T10:08:33.329Z,1001.41
2018-03-02T10:09:33.324Z,1001.29
2018-03-02T10:10:33.335Z,1001.31
2018-03-02T10:11:33.414Z,1001.34
2018-03-02T10:12:33.357Z,1001.32
2018-03-02T10:13:33.349Z,1001.29
2018-03-02T10:14:33.354Z,1001.30
2018-03-02T10:15:33.371Z,1001.28
2018-03-02T10:16:33.374Z,1001.29
2018-03-02T10:17:33.365Z,1001.20
2018-03-02T10:18:33.381Z,1001.25
2018-03-02T10:19:33.385Z,1001.20
2018-03-02T10:20:33.381Z,1001.22
2018-03-02T10:21:33.401Z,1001.19
2018-03-02T10:22:33.398Z,1001.12
2018-03-02T10:23:33.419Z,1001.12
2018-03-02T10:24:33.407Z,1001.11
2018-03-02T10:25:33.416Z,1001.06
2018-03-02T10:26:33.421Z,1001.10
2018-03-02T10:27:33.423Z,1001.03
2018-03-02T10:28:33.430Z,1001.07
2018-03-02T10:29:33.441Z,1001.05
2018-03-02T10:30:33.462Z,1000.96
2018-03-02T10:31:33.443Z,1000.99
2018-03-02T10:32:33.458Z,1001.03
2018-03-02T10:33:33.464Z,1001.02
2018-03-02T10:34:33.466Z,1000.94
2018-03-02T10:35:33.467Z,1000.95
2018-03-02T10:36:33.476Z,1000.94
2018-03-02T10:37:33.481Z,1000.90
2018-03-02T10:38:33.499Z,1000.89
2018-03-02T10:39:33.490Z,1000.91
2018-03-02T10:40:33.498Z,1000.92
2018-03-02T10:41:33.544Z,1000.92
2018-03-02T10:42:33.519Z,1000.87
2018-03-02T10:43:33.516Z,1000.84
2018-03-02T10:44:33.523Z,1000.95
2018-03-02T10:45:33.529Z,1000.81
2018-03-02T10:46:33.540Z,1000.82
2018-03-02T10:47:33.534Z,1000.85
2018-03-02T10:48:33.545Z,1000.80
2018-03-02T10:49:33.555Z,1000.74
2018-03-02T10:50:33.561Z,1000.82
2018-03-02T10:51:33.562Z,1000.76
2018-03-02T10:52:33.584Z,1000.72
2018-03-02T10:53:33.576Z,1000.70
2018-03-02T10:54:33.585Z,1000.71
2018-03-02T10:55:33.579Z,1000.70
2018-03-02T10:56:33.587Z,1000.70
2018-03-02T10:57:33.606Z,1000.68
2018-03-02T10:58:33.604Z,1000.68
2018-03-02T10:59:33.610Z,1000.70
2018-03-02T11:00:33.620Z,1000.63
2018-03-02T11:01:33.620Z,1000.70
2018-03-02T11:02:33.635Z,1000.59
2018-03-02T11:03:33.643Z,1000.60
2018-03-02T11:04:33.638Z,1000.62
2018-03-02T11:05:33.652Z,1000.60
2018-03-02T11:06:33.671Z,1000.51
2018-03-02T11:07:33.664Z,1000.46
2018-03-02T11:08:33.661Z,1000.49
2018-03-02T11:09:33.669Z,1000.46
2018-03-02T11:10:33.683Z,1000.57
2018-03-02T11:11:33.685Z,1000.46
2018-03-02T11:12:33.683Z,1000.46
2018-03-02T11:13:33.694Z,1000.48
2018-03-02T11:14:33.700Z,1000.48
2018-03-02T11:15:33.725Z,1000.48
2018-03-02T11:16:33.723Z,1000.43
2018-03-02T11:17:33.718Z,1000.46
2018-03-02T11:18:33.723Z,1000.42
2018-03-02T11:19:33.731Z,1000.40
2018-03-02T11:20:33.737Z,1000.39
2018-03-02T11:21:33.754Z,1000.37
2018-03-02T11:22:33.759Z,1000.40
2018-03-02T11:23:33.762Z,1000.31
2018-03-02T11:24:33.773Z,1000.29
2018-03-02T11:25:33.775Z,1000.29
2018-03-02T11:26:33.788Z,1000.26
2018-03-02T11:27:33.775Z,1000.31
2018-03-02T11:28:33.785Z,1000.30
2018-03-02T11:29:33.804Z,1000.29
2018-03-02T11:30:33.805Z,1000.22
2018-03-02T11:31:33.820Z,1000.27
2018-03-02T11:32:33.813Z,1000.17
2018-03-02T11:33:33.819Z,1000.24
2018-03-02T11:34:33.834Z,1000.23
2018-03-02T11:35:33.843Z,1000.12
2018-03-02T11:36:33.843Z,1000.13
2018-03-02T11:37:33.844Z,1000.15
2018-03-02T11:38:33.849Z,1000.15
2018-03-02T11:39:33.864Z,1000.19
2018-03-02T11:40:33.877Z,1000.19
2018-03-02T11:41:33.877Z,1000.13
2018-03-02T11:42:33.877Z,1000.09
2018-03-02T11:43:33.881Z,1000.12
2018-03-02T11:44:33.889Z,1000.12
2018-03-02T11:45:33.902Z,1000.06
2018-03-02T11:46:33.906Z,1000.13
2018-03-02T11:47:33.919Z,1000.10
2018-03-02T11:48:33.916Z,1000.02
2018-03-02T11:49:33.921Z,1000.14
2018-03-02T11:50:33.937Z,1000.04
2018-03-02T11:51:33.947Z,1000.02
2018-03-02T11:52:33.951Z,1000.05
2018-03-02T11:53:33.962Z,1000.02
2018-03-02T11:54:33.953Z,999.89
2018-03-02T11:55:33.970Z,999.93
2018-03-02T11:56:33.975Z,1000.01
2018-03-02T11:57:33.980Z,999.92
2018-03-02T11:58:33.994Z,999.98
2018-03-02T11:59:33.991Z,1000.01
2018-03-02T12:00:33.995Z,999.93
2018-03-02T12:01:34.009Z,999.91
2018-03-02T12:02:34.012Z,999.83
2018-03-02T12:03:34.026Z,999.86
2018-03-02T12:04:34.035Z,999.82
2018-03-02T12:05:34.028Z,999.80
2018-03-02T12:06:34.039Z,999.79